Douglas B.gurian — WDH7352 — position and weather

sailwx.info

Track history (hours):
 
Tides and Currents Weather Stations Pressure Air Temp Water Temp Dewpoint Dewpoint Depression Visibility Wind Speed Wind Dir Waves Ship Positions

Douglas B.gurian

Owner: Port Imperial Ferry Corporation, Weehawken, NJ. More information available from US FCC via Universal Licensing System and Coast Guard Vessel Documentation Center.

Last reported at 2018-Feb-24 01:29 UTC. Time now 2018-Feb-26 02:08 UTC.
Position N 40°46' W 074°01'.

Length 21 m; draft 2 m.

Type: Passenger vessel. MMSI: 366834170.

Date/timePositionNaut miles runAvg speedWind from/ knotsBaromVisibWave heightAir tempDewpointWater temp
2018-Feb-24 01:29N 40°46' W 074°01'4 8.6
2018-Feb-24 01:01N 40°42' W 074°00'2 3.6
2018-Feb-24 00:30N 40°43' W 074°03'0 0.0
2018-Feb-24 00:00N 40°43' W 074°03'0 0.0
2018-Feb-23 23:31N 40°43' W 074°03'0 0.0
2018-Feb-23 23:01N 40°43' W 074°03'0 0.0
2018-Feb-23 22:30N 40°43' W 074°03'0 0.0
2018-Feb-23 22:00N 40°43' W 074°03'0 0.0
2018-Feb-23 21:30N 40°43' W 074°03'3 6.2
2018-Feb-23 21:01N 40°45' W 074°01'1 0.3
2018-Feb-23 18:55N 40°46' W 074°01'3 8.3
2018-Feb-23 18:31N 40°43' W 074°02'1 2.6
2018-Feb-23 18:00N 40°42' W 074°00'1 2.5
2018-Feb-23 17:30N 40°43' W 074°02'1 2.5
2018-Feb-23 17:01N 40°42' W 074°00'1 2.8
2018-Feb-23 16:31N 40°43' W 074°02'1 2.8
2018-Feb-23 16:00N 40°42' W 074°00'1 2.8
2018-Feb-23 15:31N 40°43' W 074°02'0 0.0
2018-Feb-23 15:00N 40°43' W 074°02'1 1.0
2018-Feb-23 14:30N 40°43' W 074°03'0 0.0
2018-Feb-23 14:00N 40°43' W 074°03'0 0.0
2018-Feb-23 13:30N 40°43' W 074°03'0 0.0
2018-Feb-23 13:00N 40°43' W 074°03'0 0.0
2018-Feb-23 12:31N 40°43' W 074°03'0 0.0
2018-Feb-23 12:00N 40°43' W 074°03'0 0.0
2018-Feb-23 11:30N 40°43' W 074°03'0 0.0
2018-Feb-23 11:00N 40°43' W 074°03'0 0.0
2018-Feb-23 10:30N 40°43' W 074°03'2 0.2
2018-Feb-23 02:40N 40°42' W 074°01'1 8.0
2018-Feb-23 02:31N 40°41' W 074°02'1 2.6
2018-Feb-23 02:01N 40°42' W 074°01'1 2.9
2018-Feb-23 01:30N 40°41' W 074°02'1 2.9
2018-Feb-23 01:00N 40°42' W 074°01'0 0.6
2018-Feb-23 00:30N 40°42' W 074°00'0 0.3
2018-Feb-23 00:00N 40°42' W 074°00'0 0.3
2018-Feb-22 23:30N 40°42' W 074°00'0 0.0
2018-Feb-22 22:59N 40°42' W 074°00'0 0.0
2018-Feb-22 22:30N 40°42' W 074°00'0 0.0
2018-Feb-22 22:00N 40°42' W 074°00'0 0.0
2018-Feb-22 21:30N 40°42' W 074°00'0 0.3
2018-Feb-22 21:00N 40°42' W 074°00'1 2.6
2018-Feb-22 20:30N 40°43' W 074°02'1 2.6
2018-Feb-22 20:00N 40°42' W 074°00'1 2.6
2018-Feb-22 19:30N 40°43' W 074°02'1 2.5
2018-Feb-22 19:00N 40°42' W 074°00'2 4.3
2018-Feb-22 18:30N 40°44' W 074°02'2 0.7
2018-Feb-22 15:14N 40°46' W 074°01'418.9
2018-Feb-22 15:01N 40°42' W 074°01'0 0.7
2018-Feb-22 14:30N 40°42' W 074°00'0 0.0
2018-Feb-22 14:01N 40°42' W 074°00'0 0.0
2018-Feb-22 13:30N 40°42' W 074°00'0 0.0
2018-Feb-22 13:00N 40°42' W 074°00'0 0.0
2018-Feb-22 12:30N 40°42' W 074°00'0 0.0
2018-Feb-22 12:00N 40°42' W 074°00'0 0.0
2018-Feb-22 11:30N 40°42' W 074°00'4 8.1
2018-Feb-22 11:00N 40°46' W 074°01'0 0.0
2018-Feb-22 01:30N 40°46' W 074°01'4 8.8
2018-Feb-22 01:00N 40°42' W 074°01'2 3.5
2018-Feb-22 00:30N 40°43' W 074°03'0 0.0
2018-Feb-22 00:00N 40°43' W 074°03'0 0.0
2018-Feb-21 23:31N 40°43' W 074°03'0 0.0
2018-Feb-21 23:01N 40°43' W 074°03'0 0.0
2018-Feb-21 22:30N 40°43' W 074°03'0 0.0
2018-Feb-21 22:00N 40°43' W 074°03'0 0.1
2018-Feb-21 21:31N 40°43' W 074°03'2 4.7
2018-Feb-21 21:00N 40°45' W 074°01'0 0.1
2018-Feb-21 18:51N 40°45' W 074°01'2 6.4
2018-Feb-21 18:30N 40°43' W 074°02'1 2.4
2018-Feb-21 18:01N 40°42' W 074°00'1 2.7
2018-Feb-21 17:31N 40°43' W 074°02'1 2.6
2018-Feb-21 17:00N 40°42' W 074°00'1 2.6
2018-Feb-21 16:31N 40°43' W 074°02'1 2.7
2018-Feb-21 16:00N 40°42' W 074°00'1 2.6
2018-Feb-21 15:31N 40°43' W 074°02'0 0.2
2018-Feb-21 15:00N 40°43' W 074°02'0 1.0
2018-Feb-21 14:30N 40°43' W 074°03'0 0.0
2018-Feb-21 14:00N 40°43' W 074°03'0 0.0
2018-Feb-21 13:30N 40°43' W 074°03'0 0.0
2018-Feb-21 13:00N 40°43' W 074°03'0 0.0
2018-Feb-21 12:30N 40°43' W 074°03'0 0.0
2018-Feb-21 12:01N 40°43' W 074°03'0 0.0
2018-Feb-21 11:30N 40°43' W 074°03'0 0.0
2018-Feb-21 11:00N 40°43' W 074°03'0 0.0
2018-Feb-21 10:29N 40°43' W 074°03'0 0.0
2018-Feb-21 02:50N 40°43' W 074°03'2 5.0
2018-Feb-21 02:31N 40°41' W 074°02'2 3.0
2018-Feb-21 02:01N 40°42' W 074°01'2 4.0
2018-Feb-21 01:30N 40°41' W 074°03'2 4.0
2018-Feb-21 01:00N 40°42' W 074°01'0 0.5
2018-Feb-21 00:30N 40°42' W 074°00'0 0.2
2018-Feb-21 00:00N 40°42' W 074°00'0 0.0
2018-Feb-20 23:30N 40°42' W 074°00'0 0.0
2018-Feb-20 23:00N 40°42' W 074°00'0 0.0
2018-Feb-20 22:30N 40°42' W 074°00'0 0.0
2018-Feb-20 22:01N 40°42' W 074°00'0 0.0
2018-Feb-20 21:30N 40°42' W 074°00'0 0.0
2018-Feb-20 21:00N 40°42' W 074°00'1 2.8
2018-Feb-20 20:30N 40°43' W 074°02'1 2.8
2018-Feb-20 20:00N 40°42' W 074°00'1 2.8
2018-Feb-20 19:30N 40°43' W 074°02'1 2.8
2018-Feb-20 19:00N 40°42' W 074°00'2 4.3
2018-Feb-20 18:31N 40°44' W 074°02'2 0.7
2018-Feb-20 15:25N 40°46' W 074°01'410.1
2018-Feb-20 15:01N 40°42' W 074°00'0 0.0
2018-Feb-20 14:31N 40°42' W 074°00'0 0.0
2018-Feb-20 14:00N 40°42' W 074°00'0 0.0
2018-Feb-20 13:31N 40°42' W 074°00'0 0.0
2018-Feb-20 13:01N 40°42' W 074°00'0 0.0
2018-Feb-20 12:31N 40°42' W 074°00'0 0.0
2018-Feb-20 12:00N 40°42' W 074°00'0 0.0
2018-Feb-20 11:31N 40°42' W 074°00'4 7.4
2018-Feb-20 11:00N 40°46' W 074°01'0 0.9
2018-Feb-20 10:30N 40°46' W 074°01'0 0.0
2018-Feb-20 10:00N 40°46' W 074°01'0 0.0
2018-Feb-20 09:30N 40°46' W 074°01'0 0.0
2018-Feb-20 09:01N 40°46' W 074°01'0 0.0
2018-Feb-20 08:30N 40°46' W 074°01'0 0.0
2018-Feb-20 08:00N 40°46' W 074°01'0 0.0
2018-Feb-20 07:29N 40°46' W 074°01'0 0.0
2018-Feb-20 07:00N 40°46' W 074°01'0 0.0
2018-Feb-20 06:30N 40°46' W 074°01'0 0.0
2018-Feb-20 06:00N 40°46' W 074°01'0 0.0
2018-Feb-20 05:30N 40°46' W 074°01'0 0.0
2018-Feb-20 05:00N 40°46' W 074°01'0 0.0
2018-Feb-20 04:30N 40°46' W 074°01'  
2018-Feb-17 01:24N 40°46' W 074°01'410.7
2018-Feb-17 01:01N 40°42' W 074°00'2 3.5
2018-Feb-17 00:30N 40°43' W 074°03'0 0.0
2018-Feb-17 00:00N 40°43' W 074°03'0 0.0
2018-Feb-16 23:30N 40°43' W 074°03'0 0.0
2018-Feb-16 23:00N 40°43' W 074°03'0 0.4
2018-Feb-16 22:30N 40°43' W 074°02'0 0.3
2018-Feb-16 22:00N 40°43' W 074°02'0 0.6
2018-Feb-16 21:30N 40°43' W 074°02'2 4.2
2018-Feb-16 21:00N 40°45' W 074°01'2 0.9
2018-Feb-16 18:58N 40°46' W 074°01'4 8.1
2018-Feb-16 18:31N 40°43' W 074°02'1 2.2
2018-Feb-16 18:00N 40°42' W 074°00'1 2.4
2018-Feb-16 17:30N 40°43' W 074°02'1 2.5
2018-Feb-16 17:00N 40°42' W 074°00'1 2.8
2018-Feb-16 16:30N 40°43' W 074°02'1 2.8
2018-Feb-16 16:00N 40°42' W 074°00'1 2.7
2018-Feb-16 15:30N 40°43' W 074°02'0 0.1
2018-Feb-16 15:00N 40°43' W 074°02'1 1.0
2018-Feb-16 14:30N 40°43' W 074°03'0 0.0
2018-Feb-16 14:00N 40°43' W 074°03'0 0.0
2018-Feb-16 13:31N 40°43' W 074°03'0 0.0
2018-Feb-16 13:00N 40°43' W 074°03'0 0.0
2018-Feb-16 12:31N 40°43' W 074°03'0 0.0
2018-Feb-16 12:00N 40°43' W 074°03'0 0.0
2018-Feb-16 11:30N 40°43' W 074°03'0 0.0
2018-Feb-16 11:00N 40°43' W 074°03'1 0.1
2018-Feb-16 02:45N 40°43' W 074°02'2 6.1
2018-Feb-16 02:31N 40°41' W 074°02'1 2.2
2018-Feb-16 02:01N 40°42' W 074°01'2 3.3
2018-Feb-16 01:31N 40°41' W 074°02'2 3.4
2018-Feb-16 01:00N 40°42' W 074°01'1 3.0
2018-Feb-16 00:30N 40°43' W 074°02'0 0.1
2018-Feb-16 00:01N 40°43' W 074°03'0 0.0
2018-Feb-15 23:31N 40°43' W 074°03'0 0.0
2018-Feb-15 23:01N 40°43' W 074°03'0 0.1
2018-Feb-15 22:31N 40°43' W 074°03'0 0.3
2018-Feb-15 22:01N 40°43' W 074°02'0 0.1
2018-Feb-15 21:30N 40°43' W 074°02'2 3.4
2018-Feb-15 21:00N 40°44' W 074°01'2 4.5
2018-Feb-15 20:30N 40°46' W 074°01'0 0.0
2018-Feb-15 19:59N 40°46' W 074°01'0 0.0
2018-Feb-15 19:29N 40°46' W 074°01'0 0.0
2018-Feb-15 19:00N 40°46' W 074°01'4 7.2
2018-Feb-15 18:30N 40°43' W 074°02'1 2.7
2018-Feb-15 18:01N 40°42' W 074°00'1 2.6
2018-Feb-15 17:30N 40°43' W 074°02'1 2.6
2018-Feb-15 17:01N 40°42' W 074°01'1 2.5
2018-Feb-15 16:31N 40°43' W 074°02'1 2.4
2018-Feb-15 16:00N 40°42' W 074°00'1 2.6
2018-Feb-15 15:30N 40°43' W 074°02'0 0.1
2018-Feb-15 15:00N 40°43' W 074°02'0 1.0
2018-Feb-15 14:30N 40°43' W 074°03'0 0.0
2018-Feb-15 14:00N 40°43' W 074°03'0 0.0
2018-Feb-15 13:30N 40°43' W 074°03'0 0.0
2018-Feb-15 13:00N 40°43' W 074°03'0 0.0
2018-Feb-15 12:30N 40°43' W 074°03'0 0.0
2018-Feb-15 12:00N 40°43' W 074°03'0 0.0
2018-Feb-15 11:30N 40°43' W 074°03'0 0.0
2018-Feb-15 11:01N 40°43' W 074°03'0 0.0
2018-Feb-15 10:31N 40°43' W 074°03'2 0.2
2018-Feb-15 02:38N 40°42' W 074°00'219.2
2018-Feb-15 02:31N 40°40' W 074°03'2 4.2
2018-Feb-15 02:01N 40°42' W 074°01'2 4.7
2018-Feb-15 01:31N 40°41' W 074°03'2 4.6
2018-Feb-15 01:00N 40°42' W 074°01'0 0.6
2018-Feb-15 00:30N 40°42' W 074°00'0 0.0
2018-Feb-15 00:00N 40°42' W 074°00'0 0.0
2018-Feb-14 23:31N 40°42' W 074°00'0 0.0
2018-Feb-14 23:00N 40°42' W 074°00'0 0.0
2018-Feb-14 22:30N 40°42' W 074°00'0 0.0
2018-Feb-14 22:00N 40°42' W 074°00'0 0.0
2018-Feb-14 21:30N 40°42' W 074°00'0 0.2
2018-Feb-14 21:00N 40°42' W 074°00'1 2.6
2018-Feb-14 20:30N 40°43' W 074°02'1 2.6
2018-Feb-14 20:01N 40°42' W 074°00'1 2.8
2018-Feb-14 19:30N 40°43' W 074°02'1 2.7
2018-Feb-14 19:00N 40°42' W 074°00'2 4.3
2018-Feb-14 18:30N 40°44' W 074°02'2 1.0
2018-Feb-14 16:08N 40°46' W 074°01'0 0.7
2018-Feb-14 16:00N 40°46' W 074°01'0 0.1
2018-Feb-14 15:31N 40°46' W 074°01'4 8.6
2018-Feb-14 15:01N 40°42' W 074°01'0 0.7
2018-Feb-14 14:31N 40°42' W 074°00'0 0.0
2018-Feb-14 14:01N 40°42' W 074°00'0 0.0
2018-Feb-14 13:31N 40°42' W 074°00'0 0.0
2018-Feb-14 13:01N 40°42' W 074°00'0 0.0
2018-Feb-14 12:30N 40°42' W 074°00'0 0.0
2018-Feb-14 12:01N 40°42' W 074°00'0 0.0
2018-Feb-14 11:31N 40°42' W 074°00'4 8.3
2018-Feb-14 11:00N 40°46' W 074°01'0 0.0
2018-Feb-14 02:10N 40°46' W 074°01'0 0.1
2018-Feb-14 02:00N 40°46' W 074°01'  
Track history (hours):
 
Tides and Currents Weather Stations Pressure Air Temp Water Temp Dewpoint Dewpoint Depression Visibility Wind Speed Wind Dir Waves Ship Positions

Douglas B.gurian

Owner: Port Imperial Ferry Corporation, Weehawken, NJ. More information available from US FCC via Universal Licensing System and Coast Guard Vessel Documentation Center.

Last reported at 2018-Feb-24 01:29 UTC. Time now 2018-Feb-26 02:08 UTC.
Position N 40°46' W 074°01'.

Length 21 m; draft 2 m.

Type: Passenger vessel. MMSI: 366834170.

Date/timePositionNaut miles runAvg speedWind from/ knotsBaromVisibWave heightAir tempDewpointWater temp
2018-Feb-24 01:29N 40°46' W 074°01'4 8.6
2018-Feb-24 01:01N 40°42' W 074°00'2 3.6
2018-Feb-24 00:30N 40°43' W 074°03'0 0.0
2018-Feb-24 00:00N 40°43' W 074°03'0 0.0
2018-Feb-23 23:31N 40°43' W 074°03'0 0.0
2018-Feb-23 23:01N 40°43' W 074°03'0 0.0
2018-Feb-23 22:30N 40°43' W 074°03'0 0.0
2018-Feb-23 22:00N 40°43' W 074°03'0 0.0
2018-Feb-23 21:30N 40°43' W 074°03'3 6.2
2018-Feb-23 21:01N 40°45' W 074°01'1 0.3
2018-Feb-23 18:55N 40°46' W 074°01'3 8.3
2018-Feb-23 18:31N 40°43' W 074°02'1 2.6
2018-Feb-23 18:00N 40°42' W 074°00'1 2.5
2018-Feb-23 17:30N 40°43' W 074°02'1 2.5
2018-Feb-23 17:01N 40°42' W 074°00'1 2.8
2018-Feb-23 16:31N 40°43' W 074°02'1 2.8
2018-Feb-23 16:00N 40°42' W 074°00'1 2.8
2018-Feb-23 15:31N 40°43' W 074°02'0 0.0
2018-Feb-23 15:00N 40°43' W 074°02'1 1.0
2018-Feb-23 14:30N 40°43' W 074°03'0 0.0
2018-Feb-23 14:00N 40°43' W 074°03'0 0.0
2018-Feb-23 13:30N 40°43' W 074°03'0 0.0
2018-Feb-23 13:00N 40°43' W 074°03'0 0.0
2018-Feb-23 12:31N 40°43' W 074°03'0 0.0
2018-Feb-23 12:00N 40°43' W 074°03'0 0.0
2018-Feb-23 11:30N 40°43' W 074°03'0 0.0
2018-Feb-23 11:00N 40°43' W 074°03'0 0.0
2018-Feb-23 10:30N 40°43' W 074°03'2 0.2
2018-Feb-23 02:40N 40°42' W 074°01'1 8.0
2018-Feb-23 02:31N 40°41' W 074°02'1 2.6
2018-Feb-23 02:01N 40°42' W 074°01'1 2.9
2018-Feb-23 01:30N 40°41' W 074°02'1 2.9
2018-Feb-23 01:00N 40°42' W 074°01'0 0.6
2018-Feb-23 00:30N 40°42' W 074°00'0 0.3
2018-Feb-23 00:00N 40°42' W 074°00'0 0.3
2018-Feb-22 23:30N 40°42' W 074°00'0 0.0
2018-Feb-22 22:59N 40°42' W 074°00'0 0.0
2018-Feb-22 22:30N 40°42' W 074°00'0 0.0
2018-Feb-22 22:00N 40°42' W 074°00'0 0.0
2018-Feb-22 21:30N 40°42' W 074°00'0 0.3
2018-Feb-22 21:00N 40°42' W 074°00'1 2.6
2018-Feb-22 20:30N 40°43' W 074°02'1 2.6
2018-Feb-22 20:00N 40°42' W 074°00'1 2.6
2018-Feb-22 19:30N 40°43' W 074°02'1 2.5
2018-Feb-22 19:00N 40°42' W 074°00'2 4.3
2018-Feb-22 18:30N 40°44' W 074°02'2 0.7
2018-Feb-22 15:14N 40°46' W 074°01'418.9
2018-Feb-22 15:01N 40°42' W 074°01'0 0.7
2018-Feb-22 14:30N 40°42' W 074°00'0 0.0
2018-Feb-22 14:01N 40°42' W 074°00'0 0.0
2018-Feb-22 13:30N 40°42' W 074°00'0 0.0
2018-Feb-22 13:00N 40°42' W 074°00'0 0.0
2018-Feb-22 12:30N 40°42' W 074°00'0 0.0
2018-Feb-22 12:00N 40°42' W 074°00'0 0.0
2018-Feb-22 11:30N 40°42' W 074°00'4 8.1
2018-Feb-22 11:00N 40°46' W 074°01'0 0.0
2018-Feb-22 01:30N 40°46' W 074°01'4 8.8
2018-Feb-22 01:00N 40°42' W 074°01'2 3.5
2018-Feb-22 00:30N 40°43' W 074°03'0 0.0
2018-Feb-22 00:00N 40°43' W 074°03'0 0.0
2018-Feb-21 23:31N 40°43' W 074°03'0 0.0
2018-Feb-21 23:01N 40°43' W 074°03'0 0.0
2018-Feb-21 22:30N 40°43' W 074°03'0 0.0
2018-Feb-21 22:00N 40°43' W 074°03'0 0.1
2018-Feb-21 21:31N 40°43' W 074°03'2 4.7
2018-Feb-21 21:00N 40°45' W 074°01'0 0.1
2018-Feb-21 18:51N 40°45' W 074°01'2 6.4
2018-Feb-21 18:30N 40°43' W 074°02'1 2.4
2018-Feb-21 18:01N 40°42' W 074°00'1 2.7
2018-Feb-21 17:31N 40°43' W 074°02'1 2.6
2018-Feb-21 17:00N 40°42' W 074°00'1 2.6
2018-Feb-21 16:31N 40°43' W 074°02'1 2.7
2018-Feb-21 16:00N 40°42' W 074°00'1 2.6
2018-Feb-21 15:31N 40°43' W 074°02'0 0.2
2018-Feb-21 15:00N 40°43' W 074°02'0 1.0
2018-Feb-21 14:30N 40°43' W 074°03'0 0.0
2018-Feb-21 14:00N 40°43' W 074°03'0 0.0
2018-Feb-21 13:30N 40°43' W 074°03'0 0.0
2018-Feb-21 13:00N 40°43' W 074°03'0 0.0
2018-Feb-21 12:30N 40°43' W 074°03'0 0.0
2018-Feb-21 12:01N 40°43' W 074°03'0 0.0
2018-Feb-21 11:30N 40°43' W 074°03'0 0.0
2018-Feb-21 11:00N 40°43' W 074°03'0 0.0
2018-Feb-21 10:29N 40°43' W 074°03'0 0.0
2018-Feb-21 02:50N 40°43' W 074°03'2 5.0
2018-Feb-21 02:31N 40°41' W 074°02'2 3.0
2018-Feb-21 02:01N 40°42' W 074°01'2 4.0
2018-Feb-21 01:30N 40°41' W 074°03'2 4.0
2018-Feb-21 01:00N 40°42' W 074°01'0 0.5
2018-Feb-21 00:30N 40°42' W 074°00'0 0.2
2018-Feb-21 00:00N 40°42' W 074°00'0 0.0
2018-Feb-20 23:30N 40°42' W 074°00'0 0.0
2018-Feb-20 23:00N 40°42' W 074°00'0 0.0
2018-Feb-20 22:30N 40°42' W 074°00'0 0.0
2018-Feb-20 22:01N 40°42' W 074°00'0 0.0
2018-Feb-20 21:30N 40°42' W 074°00'0 0.0
2018-Feb-20 21:00N 40°42' W 074°00'1 2.8
2018-Feb-20 20:30N 40°43' W 074°02'1 2.8
2018-Feb-20 20:00N 40°42' W 074°00'1 2.8
2018-Feb-20 19:30N 40°43' W 074°02'1 2.8
2018-Feb-20 19:00N 40°42' W 074°00'2 4.3
2018-Feb-20 18:31N 40°44' W 074°02'2 0.7
2018-Feb-20 15:25N 40°46' W 074°01'410.1
2018-Feb-20 15:01N 40°42' W 074°00'0 0.0
2018-Feb-20 14:31N 40°42' W 074°00'0 0.0
2018-Feb-20 14:00N 40°42' W 074°00'0 0.0
2018-Feb-20 13:31N 40°42' W 074°00'0 0.0
2018-Feb-20 13:01N 40°42' W 074°00'0 0.0
2018-Feb-20 12:31N 40°42' W 074°00'0 0.0
2018-Feb-20 12:00N 40°42' W 074°00'0 0.0
2018-Feb-20 11:31N 40°42' W 074°00'4 7.4
2018-Feb-20 11:00N 40°46' W 074°01'0 0.9
2018-Feb-20 10:30N 40°46' W 074°01'0 0.0
2018-Feb-20 10:00N 40°46' W 074°01'0 0.0
2018-Feb-20 09:30N 40°46' W 074°01'0 0.0
2018-Feb-20 09:01N 40°46' W 074°01'0 0.0
2018-Feb-20 08:30N 40°46' W 074°01'0 0.0
2018-Feb-20 08:00N 40°46' W 074°01'0 0.0
2018-Feb-20 07:29N 40°46' W 074°01'0 0.0
2018-Feb-20 07:00N 40°46' W 074°01'0 0.0
2018-Feb-20 06:30N 40°46' W 074°01'0 0.0
2018-Feb-20 06:00N 40°46' W 074°01'0 0.0
2018-Feb-20 05:30N 40°46' W 074°01'0 0.0
2018-Feb-20 05:00N 40°46' W 074°01'0 0.0
2018-Feb-20 04:30N 40°46' W 074°01'  
2018-Feb-17 01:24N 40°46' W 074°01'410.7
2018-Feb-17 01:01N 40°42' W 074°00'2 3.5
2018-Feb-17 00:30N 40°43' W 074°03'0 0.0
2018-Feb-17 00:00N 40°43' W 074°03'0 0.0
2018-Feb-16 23:30N 40°43' W 074°03'0 0.0
2018-Feb-16 23:00N 40°43' W 074°03'0 0.4
2018-Feb-16 22:30N 40°43' W 074°02'0 0.3
2018-Feb-16 22:00N 40°43' W 074°02'0 0.6
2018-Feb-16 21:30N 40°43' W 074°02'2 4.2
2018-Feb-16 21:00N 40°45' W 074°01'2 0.9
2018-Feb-16 18:58N 40°46' W 074°01'4 8.1
2018-Feb-16 18:31N 40°43' W 074°02'1 2.2
2018-Feb-16 18:00N 40°42' W 074°00'1 2.4
2018-Feb-16 17:30N 40°43' W 074°02'1 2.5
2018-Feb-16 17:00N 40°42' W 074°00'1 2.8
2018-Feb-16 16:30N 40°43' W 074°02'1 2.8
2018-Feb-16 16:00N 40°42' W 074°00'1 2.7
2018-Feb-16 15:30N 40°43' W 074°02'0 0.1
2018-Feb-16 15:00N 40°43' W 074°02'1 1.0
2018-Feb-16 14:30N 40°43' W 074°03'0 0.0
2018-Feb-16 14:00N 40°43' W 074°03'0 0.0
2018-Feb-16 13:31N 40°43' W 074°03'0 0.0
2018-Feb-16 13:00N 40°43' W 074°03'0 0.0
2018-Feb-16 12:31N 40°43' W 074°03'0 0.0
2018-Feb-16 12:00N 40°43' W 074°03'0 0.0
2018-Feb-16 11:30N 40°43' W 074°03'0 0.0
2018-Feb-16 11:00N 40°43' W 074°03'1 0.1
2018-Feb-16 02:45N 40°43' W 074°02'2 6.1
2018-Feb-16 02:31N 40°41' W 074°02'1 2.2
2018-Feb-16 02:01N 40°42' W 074°01'2 3.3
2018-Feb-16 01:31N 40°41' W 074°02'2 3.4
2018-Feb-16 01:00N 40°42' W 074°01'1 3.0
2018-Feb-16 00:30N 40°43' W 074°02'0 0.1
2018-Feb-16 00:01N 40°43' W 074°03'0 0.0
2018-Feb-15 23:31N 40°43' W 074°03'0 0.0
2018-Feb-15 23:01N 40°43' W 074°03'0 0.1
2018-Feb-15 22:31N 40°43' W 074°03'0 0.3
2018-Feb-15 22:01N 40°43' W 074°02'0 0.1
2018-Feb-15 21:30N 40°43' W 074°02'2 3.4
2018-Feb-15 21:00N 40°44' W 074°01'2 4.5
2018-Feb-15 20:30N 40°46' W 074°01'0 0.0
2018-Feb-15 19:59N 40°46' W 074°01'0 0.0
2018-Feb-15 19:29N 40°46' W 074°01'0 0.0
2018-Feb-15 19:00N 40°46' W 074°01'4 7.2
2018-Feb-15 18:30N 40°43' W 074°02'1 2.7
2018-Feb-15 18:01N 40°42' W 074°00'1 2.6
2018-Feb-15 17:30N 40°43' W 074°02'1 2.6
2018-Feb-15 17:01N 40°42' W 074°01'1 2.5
2018-Feb-15 16:31N 40°43' W 074°02'1 2.4
2018-Feb-15 16:00N 40°42' W 074°00'1 2.6
2018-Feb-15 15:30N 40°43' W 074°02'0 0.1
2018-Feb-15 15:00N 40°43' W 074°02'0 1.0
2018-Feb-15 14:30N 40°43' W 074°03'0 0.0
2018-Feb-15 14:00N 40°43' W 074°03'0 0.0
2018-Feb-15 13:30N 40°43' W 074°03'0 0.0
2018-Feb-15 13:00N 40°43' W 074°03'0 0.0
2018-Feb-15 12:30N 40°43' W 074°03'0 0.0
2018-Feb-15 12:00N 40°43' W 074°03'0 0.0
2018-Feb-15 11:30N 40°43' W 074°03'0 0.0
2018-Feb-15 11:01N 40°43' W 074°03'0 0.0
2018-Feb-15 10:31N 40°43' W 074°03'2 0.2
2018-Feb-15 02:38N 40°42' W 074°00'219.2
2018-Feb-15 02:31N 40°40' W 074°03'2 4.2
2018-Feb-15 02:01N 40°42' W 074°01'2 4.7
2018-Feb-15 01:31N 40°41' W 074°03'2 4.6
2018-Feb-15 01:00N 40°42' W 074°01'0 0.6
2018-Feb-15 00:30N 40°42' W 074°00'0 0.0
2018-Feb-15 00:00N 40°42' W 074°00'0 0.0
2018-Feb-14 23:31N 40°42' W 074°00'0 0.0
2018-Feb-14 23:00N 40°42' W 074°00'0 0.0
2018-Feb-14 22:30N 40°42' W 074°00'0 0.0
2018-Feb-14 22:00N 40°42' W 074°00'0 0.0
2018-Feb-14 21:30N 40°42' W 074°00'0 0.2
2018-Feb-14 21:00N 40°42' W 074°00'1 2.6
2018-Feb-14 20:30N 40°43' W 074°02'1 2.6
2018-Feb-14 20:01N 40°42' W 074°00'1 2.8
2018-Feb-14 19:30N 40°43' W 074°02'1 2.7
2018-Feb-14 19:00N 40°42' W 074°00'2 4.3
2018-Feb-14 18:30N 40°44' W 074°02'2 1.0
2018-Feb-14 16:08N 40°46' W 074°01'0 0.7
2018-Feb-14 16:00N 40°46' W 074°01'0 0.1
2018-Feb-14 15:31N 40°46' W 074°01'4 8.6
2018-Feb-14 15:01N 40°42' W 074°01'0 0.7
2018-Feb-14 14:31N 40°42' W 074°00'0 0.0
2018-Feb-14 14:01N 40°42' W 074°00'0 0.0
2018-Feb-14 13:31N 40°42' W 074°00'0 0.0
2018-Feb-14 13:01N 40°42' W 074°00'0 0.0
2018-Feb-14 12:30N 40°42' W 074°00'0 0.0
2018-Feb-14 12:01N 40°42' W 074°00'0 0.0
2018-Feb-14 11:31N 40°42' W 074°00'4 8.3
2018-Feb-14 11:00N 40°46' W 074°01'0 0.0
2018-Feb-14 02:10N 40°46' W 074°01'0 0.1
2018-Feb-14 02:00N 40°46' W 074°01'  

Dump ship's entire track history